Time;durP1;ratioP1;P1;durP2;ratioP2;P2;SDS_P1;SDS_P2;PMS_P1;PMS_P2;Temp;Humidity;BMP_temperature;BMP_pressure;BME280_temperature;BME280_humidity;BME280_pressure;Samples;Min_cycle;Max_cycle;Signal;HPM_P1;HPM_P2
2023/03/19 00:02:06;;;;;;;8.50;3.90;;;9.20;99.90;;;9.90;100.00;97821.44;5015894;28;20561;-76
2023/03/19 00:04:47;;;;;;;8.17;4.50;;;9.20;99.90;;;9.89;100.00;97827.69;5015019;28;20477;-76
2023/03/19 00:07:17;;;;;;;7.43;3.30;;;9.20;99.90;;;9.88;100.00;97829.47;5013324;28;20541;-76
2023/03/19 00:09:47;;;;;;;5.20;3.30;;;9.20;99.90;;;9.92;100.00;97824.69;5016042;28;20474;-76
2023/03/19 00:12:16;;;;;;;9.40;3.73;;;9.30;99.90;;;9.88;100.00;97831.28;5014895;28;20470;-75
2023/03/19 00:14:46;;;;;;;6.53;3.50;;;9.30;99.90;;;9.88;100.00;97831.28;5015231;28;20566;-76
2023/03/19 00:17:16;;;;;;;5.47;3.63;;;9.20;99.90;;;9.89;100.00;97828.47;5015396;28;20467;-76
2023/03/19 00:19:47;;;;;;;4.90;3.30;;;9.20;99.90;;;9.90;100.00;97837.91;5014536;28;20864;-76
2023/03/19 00:22:19;;;;;;;4.50;3.30;;;9.30;99.90;;;9.91;100.00;97833.50;5015715;28;20462;-76
2023/03/19 00:24:49;;;;;;;5.03;3.50;;;9.30;99.90;;;9.90;100.00;97839.72;5015380;28;20529;-76
2023/03/19 00:27:19;;;;;;;5.63;3.43;;;9.30;99.90;;;9.89;100.00;97838.13;5014964;28;20961;-76
2023/03/19 00:29:50;;;;;;;9.30;3.43;;;9.30;99.90;;;9.85;100.00;97831.66;5016558;28;20471;-76
2023/03/19 00:32:19;;;;;;;6.47;3.13;;;9.30;99.90;;;9.84;100.00;97838.69;5013368;28;20562;-75
2023/03/19 00:34:50;;;;;;;7.30;3.70;;;9.20;99.90;;;9.82;100.00;97832.03;5017548;28;21526;-76
2023/03/19 00:37:20;;;;;;;10.17;4.30;;;9.30;99.90;;;9.81;100.00;97851.31;5018973;28;20472;-76
2023/03/19 00:39:49;;;;;;;9.73;3.87;;;9.20;99.90;;;9.80;100.00;97836.63;5018785;28;20525;-75
2023/03/19 00:42:19;;;;;;;7.90;3.50;;;9.20;99.90;;;9.81;100.00;97835.63;5017643;28;20494;-76
2023/03/19 00:44:48;;;;;;;6.30;3.10;;;9.20;99.90;;;9.81;100.00;97833.03;5018947;28;20885;-76
2023/03/19 00:47:21;;;;;;;8.43;4.07;;;9.10;99.90;;;9.83;100.00;97833.63;5021444;28;20891;-76
2023/03/19 00:49:51;;;;;;;6.67;3.70;;;9.10;99.90;;;9.81;100.00;97835.63;5020343;28;20470;-75
2023/03/19 00:52:21;;;;;;;7.13;3.20;;;9.00;99.90;;;9.79;100.00;97832.41;5018609;28;20485;-75
2023/03/19 00:54:51;;;;;;;7.27;3.17;;;9.10;99.90;;;9.75;100.00;97831.97;5020722;28;20485;-76
2023/03/19 00:57:21;;;;;;;6.53;3.60;;;9.10;99.90;;;9.77;100.00;97845.66;5021645;28;20476;-76
2023/03/19 00:59:50;;;;;;;8.43;3.83;;;9.10;99.90;;;9.75;100.00;97837.19;5019799;28;20566;-76
2023/03/19 01:02:20;;;;;;;4.30;3.07;;;9.00;99.90;;;9.74;100.00;97840.00;5020078;28;20686;-76
2023/03/19 01:04:51;;;;;;;7.73;3.50;;;9.10;99.90;;;9.72;100.00;97842.00;5021237;28;20505;-76
2023/03/19 01:07:21;;;;;;;6.70;3.67;;;8.90;99.90;;;9.71;100.00;97845.59;5017854;28;20454;-76
2023/03/19 01:09:50;;;;;;;5.60;3.50;;;9.00;99.90;;;9.66;100.00;97845.31;5018158;28;21040;-76
2023/03/19 01:12:21;;;;;;;5.93;4.20;;;9.00;99.90;;;9.63;100.00;97840.47;5020314;28;20511;-76
2023/03/19 01:14:51;;;;;;;4.80;3.23;;;8.90;99.90;;;9.52;100.00;97842.59;5019791;28;20565;-76
2023/03/19 01:17:20;;;;;;;10.17;3.23;;;8.80;99.90;;;9.47;100.00;97841.53;5018710;28;20457;-76
2023/03/19 01:19:51;;;;;;;7.53;3.20;;;8.80;99.90;;;9.45;100.00;97833.88;5020560;28;20627;-76
2023/03/19 01:22:20;;;;;;;8.60;3.30;;;8.70;99.90;;;9.42;100.00;97836.03;5017754;28;21117;-76
2023/03/19 01:24:50;;;;;;;6.10;3.17;;;8.70;99.90;;;9.38;100.00;97840.81;5020555;28;20960;-75
2023/03/19 01:27:20;;;;;;;4.97;3.30;;;8.70;99.90;;;9.33;100.00;97848.41;5021144;28;20529;-76
2023/03/19 01:29:50;;;;;;;5.53;2.93;;;8.60;99.90;;;9.30;100.00;97840.16;5019336;28;20871;-76
2023/03/19 01:32:21;;;;;;;5.07;2.93;;;8.50;99.90;;;9.28;100.00;97832.50;5019378;28;20506;-75
2023/03/19 01:34:53;;;;;;;9.50;3.70;;;8.50;99.90;;;9.24;100.00;97836.44;5020623;28;20459;-76
2023/03/19 01:37:23;;;;;;;7.90;3.30;;;8.50;99.90;;;9.23;100.00;97841.88;5019306;28;21015;-76
2023/03/19 01:39:52;;;;;;;9.07;3.30;;;8.40;99.90;;;9.14;100.00;97838.53;5020267;28;20505;-76
2023/03/19 01:42:22;;;;;;;7.60;3.10;;;8.40;99.90;;;9.10;100.00;97839.91;5026281;28;20540;-76
2023/03/19 01:44:52;;;;;;;9.17;4.07;;;8.40;99.90;;;9.00;100.00;97841.97;5023121;28;20493;-75
2023/03/19 01:47:31;;;;;;;5.73;2.80;;;8.40;99.90;;;8.96;100.00;97849.34;5023598;28;20478;-76
2023/03/19 01:50:02;;;;;;;4.27;2.87;;;8.30;99.90;;;8.95;100.00;97839.13;5026097;28;20501;-75
2023/03/19 01:52:34;;;;;;;3.70;2.50;;;8.20;99.90;;;8.91;100.00;97837.88;5020288;28;20458;-76
2023/03/19 01:55:08;;;;;;;3.43;2.10;;;8.20;99.90;;;8.84;100.00;97843.00;5019982;28;20466;-76
2023/03/19 01:57:38;;;;;;;8.33;3.53;;;8.10;99.90;;;8.80;100.00;97841.75;5018309;28;20983;-76
2023/03/19 02:00:15;;;;;;;8.03;3.20;;;8.10;99.90;;;8.79;100.00;97844.50;5019634;28;20501;-75
2023/03/19 02:02:47;;;;;;;21.20;2.80;;;8.00;99.90;;;8.70;100.00;97841.22;5019372;28;20494;-76
2023/03/19 02:05:24;;;;;;;4.33;2.90;;;8.00;99.90;;;8.65;100.00;97840.91;5020273;28;20470;-76
2023/03/19 02:08:00;;;;;;;8.07;3.60;;;8.00;99.90;;;8.62;100.00;97843.06;5017081;28;20492;-76
2023/03/19 02:10:31;;;;;;;5.50;3.43;;;7.90;99.90;;;8.63;100.00;97849.91;5017973;28;20541;-76
2023/03/19 02:13:02;;;;;;;5.60;3.17;;;7.90;99.90;;;8.58;100.00;97853.88;5018249;28;20849;-76
2023/03/19 02:15:32;;;;;;;4.03;2.70;;;7.90;99.90;;;8.52;100.00;97846.78;5017432;28;20465;-76
2023/03/19 02:18:02;;;;;;;9.17;3.30;;;7.90;99.90;;;8.54;100.00;97842.19;5019283;28;20454;-75
2023/03/19 02:20:41;;;;;;;9.27;3.77;;;7.80;99.90;;;8.56;100.00;97849.81;5018860;28;20585;-75
2023/03/19 02:23:26;;;;;;;4.87;3.10;;;7.70;99.90;;;8.52;100.00;97854.59;5017919;28;21226;-76
2023/03/19 02:26:04;;;;;;;7.40;3.40;;;7.80;99.90;;;8.50;100.00;97853.16;5019235;28;20463;-76
2023/03/19 02:28:37;;;;;;;7.17;3.07;;;7.70;99.90;;;8.45;100.00;97847.66;5019491;28;20912;-75
2023/03/19 02:31:08;;;;;;;3.97;3.03;;;7.70;99.90;;;8.40;100.00;97856.00;5018253;28;20474;-76
2023/03/19 02:33:38;;;;;;;5.93;3.60;;;7.60;99.90;;;8.39;100.00;97857.00;5018253;28;20498;-76
2023/03/19 02:36:17;;;;;;;7.60;2.83;;;7.60;99.90;;;8.36;100.00;97854.75;5018186;28;20458;-76
2023/03/19 02:38:48;;;;;;;6.70;3.90;;;7.60;99.90;;;8.31;100.00;97851.88;5016245;28;20469;-75
2023/03/19 02:41:20;;;;;;;3.90;2.93;;;7.60;99.90;;;8.25;100.00;97857.75;5017855;28;20859;-76
2023/03/19 02:43:53;;;;;;;6.20;3.00;;;7.50;99.90;;;8.22;100.00;97858.13;5017682;28;20466;-76
2023/03/19 02:46:24;;;;;;;5.10;3.10;;;7.40;99.90;;;8.20;100.00;97859.25;5016270;28;20918;-76
2023/03/19 02:48:54;;;;;;;4.13;2.40;;;7.50;99.90;;;8.20;100.00;97867.06;5019445;28;20823;-76
2023/03/19 02:51:25;;;;;;;9.57;3.10;;;7.40;99.90;;;8.10;100.00;97862.13;5017816;28;20462;-75
2023/03/19 02:53:55;;;;;;;8.00;3.10;;;7.40;99.90;;;8.10;100.00;97855.13;5017780;28;20489;-76
2023/03/19 02:56:26;;;;;;;5.23;2.50;;;7.30;99.90;;;8.05;100.00;97844.41;5015528;28;20459;-75
2023/03/19 02:58:56;;;;;;;5.10;2.90;;;7.30;99.90;;;8.05;100.00;97854.03;5016925;28;20478;-76
2023/03/19 03:01:26;;;;;;;5.70;2.90;;;7.20;99.90;;;8.00;100.00;97853.75;5015490;28;20486;-76
2023/03/19 03:03:57;;;;;;;5.37;3.17;;;7.20;99.90;;;7.96;100.00;97853.28;5015600;28;20546;-76
2023/03/19 03:06:27;;;;;;;4.20;2.50;;;7.20;99.90;;;7.95;100.00;97861.25;5016411;28;20471;-75
2023/03/19 03:08:57;;;;;;;3.83;2.60;;;7.20;99.90;;;7.93;100.00;97852.81;5016693;28;20470;-76
2023/03/19 03:11:28;;;;;;;5.77;3.03;;;7.10;99.90;;;7.93;100.00;97860.63;5016555;28;21101;-76
2023/03/19 03:13:59;;;;;;;4.37;2.90;;;7.10;99.90;;;7.93;100.00;97863.22;5017192;28;20473;-76
2023/03/19 03:16:29;;;;;;;4.40;2.37;;;7.20;99.90;;;7.89;100.00;97864.56;5016407;28;20470;-76
2023/03/19 03:19:00;;;;;;;6.23;3.27;;;7.20;99.90;;;7.84;100.00;97859.09;5018623;28;20462;-76
2023/03/19 03:21:29;;;;;;;7.37;3.30;;;7.10;99.90;;;7.84;100.00;97859.91;5017995;28;20585;-76
2023/03/19 03:24:00;;;;;;;5.83;3.03;;;7.00;99.90;;;7.80;100.00;97856.00;5018257;28;20465;-76
2023/03/19 03:26:33;;;;;;;5.07;2.83;;;7.00;99.90;;;7.75;100.00;97865.31;5019162;28;21019;-76
2023/03/19 03:29:03;;;;;;;5.03;2.30;;;7.00;99.90;;;7.72;100.00;97868.25;5018692;28;20512;-76
2023/03/19 03:31:33;;;;;;;3.77;2.37;;;6.90;99.90;;;7.68;100.00;97864.38;5016624;28;20487;-75
2023/03/19 03:34:03;;;;;;;5.50;2.77;;;6.90;99.90;;;7.65;100.00;97860.34;5017640;28;20874;-76
2023/03/19 03:36:33;;;;;;;3.70;2.43;;;6.90;99.90;;;7.64;100.00;97860.50;5020202;28;20477;-76
2023/03/19 03:39:04;;;;;;;4.50;2.63;;;6.80;99.90;;;7.64;100.00;97863.09;5018204;28;20466;-76
2023/03/19 03:41:35;;;;;;;3.50;2.60;;;6.80;99.90;;;7.60;100.00;97873.88;5021590;28;21026;-76
2023/03/19 03:44:05;;;;;;;8.60;2.90;;;6.80;99.90;;;7.55;100.00;97873.59;5021091;28;21102;-76
2023/03/19 03:46:36;;;;;;;5.37;2.33;;;6.80;99.90;;;7.53;100.00;97870.31;5023387;28;20483;-75
2023/03/19 03:49:06;;;;;;;4.60;2.43;;;6.70;99.90;;;7.51;100.00;97874.91;5018198;28;20465;-76
2023/03/19 03:51:36;;;;;;;2.50;2.30;;;6.80;99.90;;;7.49;100.00;97873.47;5015674;28;20502;-76
2023/03/19 03:54:06;;;;;;;8.20;2.60;;;6.70;99.90;;;7.49;100.00;97887.28;5018530;28;20462;-76
2023/03/19 03:56:38;;;;;;;8.90;2.97;;;6.70;99.90;;;7.47;100.00;97878.00;5016245;28;20471;-75
2023/03/19 03:59:09;;;;;;;4.80;2.70;;;6.70;99.90;;;7.45;100.00;97886.00;5016966;28;20851;-76
2023/03/19 04:01:38;;;;;;;20.27;2.90;;;6.70;99.90;;;7.42;100.00;97878.53;5015938;28;20678;-76
2023/03/19 04:04:09;;;;;;;5.90;2.40;;;6.70;99.90;;;7.45;100.00;97893.00;5014711;28;20454;-76
2023/03/19 04:06:38;;;;;;;6.13;3.00;;;6.60;99.90;;;7.47;100.00;97898.81;5014679;28;20465;-76
2023/03/19 04:09:09;;;;;;;4.30;2.77;;;6.60;99.90;;;7.43;100.00;97903.56;5015396;28;20496;-76
2023/03/19 04:11:41;;;;;;;4.03;2.70;;;6.70;99.90;;;7.44;100.00;97905.19;5021016;28;20465;-75
2023/03/19 04:14:12;;;;;;;4.00;2.57;;;6.70;99.90;;;7.45;100.00;97909.41;5020639;28;20554;-76
2023/03/19 04:16:43;;;;;;;4.90;2.87;;;6.60;99.90;;;7.42;100.00;97909.75;5019758;28;20484;-76
2023/03/19 04:19:13;;;;;;;3.07;2.30;;;6.70;99.90;;;7.39;100.00;97917.88;5020261;28;20539;-76
2023/03/19 04:21:43;;;;;;;4.53;3.00;;;6.70;99.90;;;7.37;100.00;97914.66;5017999;28;20601;-75
2023/03/19 04:24:13;;;;;;;4.47;2.90;;;6.70;99.90;;;7.37;100.00;97919.84;5019460;28;20462;-75
2023/03/19 04:26:45;;;;;;;7.13;2.43;;;6.60;99.90;;;7.38;100.00;97916.28;5023157;28;20841;-76
2023/03/19 04:29:17;;;;;;;7.93;2.77;;;6.60;99.90;;;7.35;100.00;97919.22;5018854;28;20994;-76
2023/03/19 04:31:47;;;;;;;3.57;2.43;;;6.60;99.90;;;7.27;100.00;97910.63;5020078;28;20462;-76
2023/03/19 04:34:19;;;;;;;4.87;2.90;;;6.60;99.90;;;7.24;100.00;97906.59;5018763;28;20971;-76
2023/03/19 04:36:51;;;;;;;3.87;2.60;;;6.50;99.90;;;7.26;100.00;97911.59;5019714;28;20465;-76
2023/03/19 04:39:20;;;;;;;6.73;2.73;;;6.50;99.90;;;7.23;100.00;97902.34;5018550;28;20482;-76
2023/03/19 04:41:52;;;;;;;5.33;3.03;;;6.50;99.90;;;7.22;100.00;97900.72;5019190;28;20544;-76
2023/03/19 04:44:22;;;;;;;5.17;2.57;;;6.50;99.90;;;7.24;100.00;97904.00;5019175;28;20488;-76
2023/03/19 04:46:53;;;;;;;4.80;3.00;;;6.50;99.90;;;7.23;100.00;97906.75;5020818;28;20473;-76
2023/03/19 04:49:23;;;;;;;5.80;2.57;;;6.50;99.90;;;7.21;100.00;97911.31;5018147;28;20839;-76
2023/03/19 04:51:52;;;;;;;4.50;2.50;;;6.50;99.90;;;7.20;100.00;97912.28;5018599;28;20579;-75
2023/03/19 04:54:22;;;;;;;3.30;2.77;;;6.50;99.90;;;7.16;100.00;97911.81;5017604;28;20469;-76
2023/03/19 04:56:53;;;;;;;4.20;2.60;;;6.50;99.90;;;7.16;100.00;97909.22;5017981;28;20469;-75
2023/03/19 04:59:23;;;;;;;5.17;2.73;;;6.50;99.90;;;7.16;100.00;97909.22;5017593;28;20458;-75
2023/03/19 05:01:53;;;;;;;3.93;2.47;;;6.40;99.90;;;7.12;100.00;97910.53;5019917;28;20961;-77
2023/03/19 05:04:23;;;;;;;9.87;3.10;;;6.40;99.90;;;7.09;100.00;97911.69;5019827;28;21546;-77
2023/03/19 05:06:56;;;;;;;3.17;2.73;;;6.40;99.90;;;7.11;100.00;97914.13;5017569;28;20565;-77
2023/03/19 05:09:26;;;;;;;5.77;2.10;;;6.30;99.90;;;7.07;100.00;97920.63;5015712;28;20481;-80
2023/03/19 05:11:57;;;;;;;5.57;2.77;;;6.40;99.90;;;7.06;100.00;97913.81;5017585;28;20469;-78
2023/03/19 05:14:29;;;;;;;4.00;2.30;;;6.40;99.90;;;7.07;100.00;97918.84;5017339;28;20481;-79
2023/03/19 05:16:59;;;;;;;6.27;3.10;;;6.30;99.90;;;7.08;100.00;97914.44;5017442;28;20470;-76
2023/03/19 05:19:29;;;;;;;2.50;2.20;;;6.30;99.90;;;7.06;100.00;97922.41;5018639;28;20493;-78
2023/03/19 05:21:59;;;;;;;2.80;2.20;;;6.20;99.90;;;7.03;100.00;97919.34;5017610;28;20547;-77
2023/03/19 05:24:29;;;;;;;3.43;2.37;;;6.30;99.90;;;7.03;100.00;97921.94;5019426;28;20496;-77
2023/03/19 05:27:00;;;;;;;5.13;2.30;;;6.30;99.90;;;7.01;100.00;97923.91;5018446;28;20540;-77
2023/03/19 05:29:30;;;;;;;3.53;2.40;;;6.40;99.90;;;7.01;100.00;97921.31;5021053;28;20469;-77
2023/03/19 05:32:02;;;;;;;3.13;2.13;;;6.40;99.90;;;7.05;100.00;97914.78;5017984;28;20481;-78
2023/03/19 05:34:32;;;;;;;8.43;2.30;;;6.30;99.90;;;7.06;100.00;97919.00;5020150;28;20462;-77
2023/03/19 05:37:01;;;;;;;3.70;2.30;;;6.40;99.90;;;7.02;100.00;97920.31;5018904;28;20496;-77
2023/03/19 05:39:31;;;;;;;5.90;2.30;;;6.40;99.90;;;7.02;100.00;97920.31;5020296;28;20525;-77
2023/03/19 05:42:04;;;;;;;5.23;2.40;;;6.30;99.90;;;7.02;100.00;97917.72;5023426;28;20497;-77
2023/03/19 05:44:34;;;;;;;6.67;2.57;;;6.40;99.90;;;7.03;100.00;97917.56;5023763;28;20557;-77
2023/03/19 05:47:07;;;;;;;5.40;2.80;;;6.40;99.90;;;7.01;100.00;97923.91;5019929;28;20464;-77
2023/03/19 05:49:37;;;;;;;6.70;2.50;;;6.40;99.90;;;7.02;100.00;97917.72;5018214;28;20465;-77
2023/03/19 05:52:07;;;;;;;5.20;2.97;;;6.40;99.90;;;7.05;100.00;97919.97;5017406;28;20465;-77
2023/03/19 05:54:38;;;;;;;3.17;2.50;;;6.40;99.90;;;7.06;100.00;97924.19;5019182;28;21147;-76
2023/03/19 05:57:10;;;;;;;7.03;2.50;;;6.40;99.90;;;7.08;100.00;97927.44;5018956;28;20546;-77
2023/03/19 05:59:40;;;;;;;2.93;2.63;;;6.30;99.90;;;7.08;100.00;97928.25;5020042;28;20462;-77
2023/03/19 06:02:10;;;;;;;2.87;2.40;;;6.30;99.90;;;7.09;100.00;97923.88;5018940;28;20498;-77
2023/03/19 06:04:40;;;;;;;4.60;2.73;;;6.40;99.90;;;7.07;100.00;97928.44;5018560;28;20552;-77
2023/03/19 06:07:11;;;;;;;3.53;2.40;;;6.40;99.90;;;7.09;100.00;97929.06;5017851;28;20462;-77
2023/03/19 06:09:41;;;;;;;4.67;2.40;;;6.40;99.90;;;7.10;100.00;97930.69;5020611;28;20470;-77
2023/03/19 06:12:13;;;;;;;4.03;2.80;;;6.40;99.90;;;7.11;100.00;97928.91;5016396;28;20458;-77
2023/03/19 06:14:46;;;;;;;4.63;3.10;;;6.40;99.90;;;7.11;100.00;97934.09;5018290;28;20476;-75
2023/03/19 06:17:15;;;;;;;3.03;2.37;;;6.50;99.90;;;7.09;100.00;97931.66;5013656;28;20458;-77
2023/03/19 06:19:45;;;;;;;5.63;2.43;;;6.50;99.90;;;7.10;100.00;97933.28;5018767;28;20477;-77
2023/03/19 06:22:14;;;;;;;5.13;2.60;;;6.50;99.90;;;7.12;100.00;97935.72;5016984;28;20500;-77
2023/03/19 06:24:44;;;;;;;3.50;2.70;;;6.50;99.90;;;7.13;100.00;97938.16;5017616;28;20462;-77
2023/03/19 06:27:16;;;;;;;4.10;2.97;;;6.50;99.90;;;7.16;100.00;97940.41;5017382;28;20944;-77
2023/03/19 06:29:46;;;;;;;5.37;2.40;;;6.50;99.90;;;7.20;100.00;97938.28;5016679;28;20467;-77
2023/03/19 06:32:17;;;;;;;3.07;2.20;;;6.50;99.90;;;7.22;100.00;97946.75;5016255;28;20482;-77
2023/03/19 06:34:47;;;;;;;3.10;2.43;;;6.50;99.90;;;7.25;100.00;97947.22;5017396;28;20466;-77
2023/03/19 06:37:18;;;;;;;5.77;2.40;;;6.50;99.90;;;7.28;100.00;97938.25;5018201;28;20498;-77
2023/03/19 06:39:48;;;;;;;3.03;2.30;;;6.50;99.90;;;7.31;100.00;97943.94;5015192;28;20462;-77
2023/03/19 06:42:19;;;;;;;3.20;2.60;;;6.60;99.90;;;7.33;100.00;97944.56;5014826;28;20486;-77
2023/03/19 06:44:49;;;;;;;2.50;2.30;;;6.60;99.90;;;7.37;100.00;97934.63;5017554;28;20464;-78
2023/03/19 06:47:22;;;;;;;3.83;3.13;;;6.60;99.90;;;7.35;100.00;97942.63;5017975;28;20458;-77
2023/03/19 06:49:50;;;;;;;2.53;2.33;;;6.70;99.90;;;7.34;100.00;97943.59;5017660;28;20976;-77
2023/03/19 06:52:21;;;;;;;2.67;2.20;;;6.60;99.90;;;7.38;100.00;97949.28;5019230;28;20556;-77
2023/03/19 06:54:51;;;;;;;8.90;2.60;;;6.60;99.90;;;7.41;100.00;97952.34;5018199;28;20461;-76
2023/03/19 06:57:22;;;;;;;2.80;2.00;;;6.70;99.90;;;7.43;100.00;97958.19;5017232;28;20546;-77
2023/03/19 06:59:52;;;;;;;2.70;2.33;;;6.70;99.90;;;7.45;100.00;97961.44;5020696;28;20500;-76
2023/03/19 07:02:22;;;;;;;5.90;2.63;;;6.80;99.90;;;7.48;100.00;97958.50;5014888;28;20509;-76
2023/03/19 07:04:53;;;;;;;3.30;2.70;;;6.80;99.90;;;7.53;100.00;97961.38;5016294;28;20540;-77
2023/03/19 07:07:22;;;;;;;4.50;2.80;;;6.80;99.90;;;7.51;100.00;97955.56;5015234;28;20459;-77
2023/03/19 07:09:52;;;;;;;7.50;3.60;;;6.90;99.90;;;7.54;100.00;97955.22;5015329;28;20515;-77
2023/03/19 07:12:26;;;;;;;2.63;2.00;;;6.90;99.90;;;7.60;100.00;97962.31;5015126;28;20540;-77
2023/03/19 07:14:56;;;;;;;8.67;2.37;;;6.90;99.90;;;7.64;100.00;97968.00;5015675;28;20464;-76
2023/03/19 07:17:27;;;;;;;3.53;2.37;;;7.00;99.90;;;7.68;100.00;97971.88;5014137;28;20935;-76
2023/03/19 07:19:56;;;;;;;3.47;2.30;;;7.00;99.90;;;7.74;100.00;97979.00;5014456;28;20468;-77
2023/03/19 07:22:27;;;;;;;3.33;2.40;;;7.00;99.90;;;7.77;100.00;97978.69;5016627;28;20508;-76
2023/03/19 07:24:57;;;;;;;2.80;2.20;;;7.10;99.90;;;7.82;100.00;97978.16;5016524;28;20466;-76
2023/03/19 07:27:30;;;;;;;4.90;2.43;;;7.20;99.90;;;7.85;100.00;97985.63;5017335;28;20462;-77
2023/03/19 07:29:59;;;;;;;4.40;2.30;;;7.30;99.90;;;7.88;100.00;97988.69;5015141;28;20471;-77
2023/03/19 07:32:30;;;;;;;5.00;2.57;;;7.30;99.90;;;7.93;100.00;97982.97;5016915;28;20517;-77
2023/03/19 07:35:00;;;;;;;3.10;1.93;;;7.30;99.90;;;7.98;100.00;97981.47;5018298;28;20463;-77
2023/03/19 07:37:30;;;;;;;3.80;2.90;;;7.30;99.90;;;8.04;100.00;97985.19;5018317;28;20561;-77
2023/03/19 07:40:01;;;;;;;5.10;2.73;;;7.40;99.90;;;8.08;100.00;97986.47;5016204;28;20461;-76
2023/03/19 07:42:31;;;;;;;3.70;2.80;;;7.40;99.90;;;8.12;100.00;97982.56;5017685;28;20494;-77
2023/03/19 07:45:01;;;;;;;8.70;2.80;;;7.50;99.90;;;8.16;100.00;97981.19;5017371;28;20497;-76
2023/03/19 07:47:31;;;;;;;4.57;2.10;;;7.50;99.90;;;8.21;100.00;97976.28;5017150;28;21028;-76
2023/03/19 07:50:00;;;;;;;4.70;2.80;;;7.50;99.90;;;8.27;100.00;97974.78;5018200;28;20527;-76
2023/03/19 07:52:30;;;;;;;3.73;2.80;;;7.60;99.90;;;8.30;100.00;97983.09;5016088;28;20469;-77
2023/03/19 07:55:00;;;;;;;8.17;2.63;;;7.60;99.90;;;8.35;100.00;97978.19;5015409;28;20965;-77
2023/03/19 07:57:31;;;;;;;7.47;4.47;;;7.80;99.90;;;8.38;100.00;97972.63;5015355;28;20549;-76
2023/03/19 08:00:01;;;;;;;5.90;3.43;;;7.80;99.90;;;8.41;100.00;97972.25;5014922;28;20511;-77
2023/03/19 08:02:31;;;;;;;4.80;3.00;;;7.90;99.90;;;8.44;100.00;97971.91;5014999;28;20495;-77
2023/03/19 08:05:03;;;;;;;7.03;2.63;;;7.90;99.90;;;8.47;100.00;97971.56;5016082;28;20950;-77
2023/03/19 08:07:33;;;;;;;7.33;3.13;;;7.90;99.90;;;8.50;100.00;97975.63;5014630;28;20519;-77
2023/03/19 08:10:02;;;;;;;3.47;3.00;;;7.90;99.90;;;8.53;100.00;97986.50;5016352;28;20820;-77
2023/03/19 08:12:39;;;;;;;6.27;2.80;;;7.90;99.90;;;8.57;100.00;97976.53;5016638;28;20475;-77
2023/03/19 08:15:12;;;;;;;3.83;3.27;;;8.00;99.90;;;8.62;100.00;97979.41;5015220;28;20470;-78
2023/03/19 08:17:42;;;;;;;7.17;2.57;;;8.00;99.90;;;8.66;100.00;97985.09;5014964;28;20486;-77
2023/03/19 08:20:16;;;;;;;5.10;3.63;;;8.00;99.90;;;8.71;100.00;97980.16;5015740;28;20466;-77
2023/03/19 08:22:50;;;;;;;11.20;3.63;;;8.10;99.90;;;8.75;100.00;97978.81;5014696;28;20624;-77
2023/03/19 08:25:20;;;;;;;6.60;3.57;;;8.20;99.90;;;8.79;100.00;97975.69;4954092;28;20519;-77
2023/03/19 08:27:51;;;;;;;9.13;3.50;;;8.20;99.90;;;8.84;100.00;97977.75;4996602;28;20983;-76
2023/03/19 08:30:22;;;;;;;3.67;2.70;;;8.20;99.90;;;8.89;100.00;97975.41;4993605;28;20522;-77
2023/03/19 08:32:51;;;;;;;8.07;3.70;;;8.20;99.90;;;8.94;100.00;97979.13;4995945;28;21071;-73
2023/03/19 08:35:21;;;;;;;7.30;3.50;;;8.30;99.90;;;9.00;100.00;97978.41;4995529;28;20462;-77
2023/03/19 08:37:51;;;;;;;2.97;2.50;;;8.30;99.90;;;9.05;100.00;97983.91;4995673;28;20502;-77
2023/03/19 08:40:20;;;;;;;6.00;3.40;;;8.40;99.90;;;9.11;100.00;97984.97;4995463;28;21051;-77
2023/03/19 08:42:50;;;;;;;4.60;2.93;;;8.50;99.90;;;9.16;100.00;97982.66;4996882;28;20494;-77
2023/03/19 08:45:19;;;;;;;8.17;3.70;;;8.60;99.90;;;9.21;100.00;97980.31;4995988;28;21117;-77
2023/03/19 08:47:50;;;;;;;5.00;2.93;;;8.60;99.90;;;9.28;100.00;97980.41;4996591;28;20475;-76
2023/03/19 08:50:20;;;;;;;6.70;3.20;;;8.70;99.90;;;9.35;100.00;97982.09;4996795;28;20464;-77
2023/03/19 08:52:50;;;;;;;6.50;3.13;;;8.70;99.90;;;9.41;100.00;97981.38;4999571;28;20879;-77
2023/03/19 08:55:19;;;;;;;8.40;4.13;;;8.80;99.90;;;9.49;100.00;97989.13;4999704;28;20537;-77
2023/03/19 08:57:50;;;;;;;7.10;4.00;;;8.90;99.90;;;9.57;100.00;97986.41;5003029;28;20476;-77
2023/03/19 09:00:22;;;;;;;7.10;3.40;;;8.90;99.90;;;9.64;100.00;97989.09;5002503;28;20904;-77
2023/03/19 09:02:52;;;;;;;5.10;3.00;;;9.00;99.90;;;9.71;100.00;97987.38;5002925;28;20498;-77
2023/03/19 09:05:23;;;;;;;4.27;2.97;;;9.10;99.90;;;9.79;100.00;97989.88;5001596;28;20534;-77
2023/03/19 09:07:52;;;;;;;4.40;2.77;;;9.20;99.90;;;9.85;100.00;97990.97;5002623;28;20462;-76
2023/03/19 09:10:21;;;;;;;4.60;2.90;;;9.30;99.90;;;9.92;100.00;97992.66;5002731;28;20542;-77
2023/03/19 09:12:53;;;;;;;4.00;3.20;;;9.40;99.90;;;10.01;100.00;97999.38;5003431;28;20864;-77
2023/03/19 09:15:22;;;;;;;3.10;2.50;;;9.40;99.90;;;10.08;100.00;97995.03;5003117;28;20463;-77
2023/03/19 09:17:52;;;;;;;3.80;3.10;;;9.50;99.90;;;10.14;100.00;97993.50;5003350;28;20466;-77
2023/03/19 09:20:22;;;;;;;4.50;2.90;;;9.60;99.90;;;10.23;100.00;97994.22;5000106;28;20481;-76
2023/03/19 09:22:53;;;;;;;2.63;2.40;;;9.70;99.90;;;10.30;100.00;97989.88;4999849;28;20612;-76
2023/03/19 09:25:24;;;;;;;6.83;2.30;;;9.70;99.90;;;10.35;100.00;97993.53;4999631;28;20469;-77
2023/03/19 09:27:53;;;;;;;3.53;2.57;;;9.90;99.90;;;10.42;100.00;97999.63;5000531;28;20549;-77
2023/03/19 09:30:23;;;;;;;4.13;2.40;;;9.90;99.90;;;10.45;100.00;98004.47;5000094;28;20575;-76
2023/03/19 09:32:54;;;;;;;7.07;2.37;;;9.90;99.90;;;10.52;100.00;97999.31;5001536;28;20464;-77
2023/03/19 09:35:23;;;;;;;5.17;3.00;;;10.00;99.90;;;10.55;100.00;98006.78;4999382;28;20456;-76
2023/03/19 09:37:53;;;;;;;4.60;2.40;;;10.00;99.90;;;10.59;100.00;98011.44;4998699;28;21037;-77
2023/03/19 09:40:29;;;;;;;4.67;2.77;;;10.10;99.90;;;10.60;100.00;98018.28;4999308;28;20500;-77
2023/03/19 09:43:21;;;;;;;5.90;2.20;;;10.10;99.90;;;10.60;100.00;98031.38;4998720;28;20522;-77
2023/03/19 09:45:50;;;;;;;3.57;2.23;;;10.00;99.90;;;10.59;100.00;98042.00;4999563;28;20544;-76
2023/03/19 09:48:33;;;;;;;3.93;2.40;;;10.00;99.90;;;10.54;100.00;98039.97;5000017;28;20558;-77
2023/03/19 09:51:13;;;;;;;8.43;2.43;;;9.90;99.90;;;10.51;100.00;98037.72;5001225;28;20575;-76
2023/03/19 09:53:54;;;;;;;4.37;2.60;;;10.00;99.90;;;10.48;100.00;98030.25;5000152;28;20452;-77
2023/03/19 09:56:25;;;;;;;7.30;2.80;;;9.90;99.90;;;10.47;100.00;98040.91;4999262;28;20471;-77
2023/03/19 09:58:57;;;;;;;3.80;2.27;;;9.80;99.90;;;10.50;100.00;98043.13;5001370;28;20561;-77
2023/03/19 10:01:34;;;;;;;3.90;2.50;;;9.90;99.90;;;10.51;100.00;98040.34;5003425;28;20476;-77
2023/03/19 10:04:37;;;;;;;3.87;2.33;;;9.90;99.90;;;10.53;100.00;98040.97;5002998;28;20513;-77
2023/03/19 10:07:31;;;;;;;3.20;2.40;;;9.90;99.90;;;10.56;100.00;98048.44;5002184;28;20490;-76
2023/03/19 10:10:26;;;;;;;4.83;2.50;;;9.90;99.90;;;10.54;100.00;98055.66;5003031;28;20533;-76
2023/03/19 10:13:10;;;;;;;5.37;3.23;;;9.90;99.90;;;10.51;100.00;98053.41;5004165;28;20559;-77
2023/03/19 10:15:44;;;;;;;4.17;2.90;;;9.80;99.90;;;10.52;100.00;98048.97;5004567;28;20521;-76
2023/03/19 10:18:21;;;;;;;7.13;3.00;;;9.90;99.90;;;10.56;100.00;98058.06;5004180;28;20462;-76
2023/03/19 10:20:57;;;;;;;4.77;2.87;;;9.90;99.90;;;10.59;100.00;98050.66;5001734;28;20459;-76
2023/03/19 10:23:48;;;;;;;4.37;2.90;;;10.00;99.90;;;10.63;100.00;98050.28;4999965;28;20495;-77
2023/03/19 10:26:20;;;;;;;9.07;3.00;;;10.00;99.90;;;10.67;100.00;98056.75;4998701;28;20962;-77
2023/03/19 10:29:04;;;;;;;4.33;3.20;;;10.10;99.90;;;10.69;100.00;98054.78;4999648;28;20891;-76
2023/03/19 10:31:47;;;;;;;5.70;3.00;;;10.00;99.90;;;10.70;100.00;98054.59;4999836;28;20460;-76
2023/03/19 10:34:31;;;;;;;4.87;3.20;;;10.10;99.90;;;10.72;100.00;98050.00;4998704;28;20464;-76
2023/03/19 10:37:03;;;;;;;6.43;3.20;;;10.20;99.90;;;10.73;100.00;98056.81;5000226;28;20557;-77
2023/03/19 10:39:36;;;;;;;10.33;3.53;;;10.20;99.90;;;10.74;100.00;98061.06;4999420;28;20546;-76
2023/03/19 10:42:26;;;;;;;5.60;3.00;;;10.10;99.90;;;10.75;100.00;98054.84;5000289;28;20467;-76
2023/03/19 10:45:04;;;;;;;6.43;3.00;;;10.20;99.90;;;10.77;100.00;98058.06;4999489;28;20594;-76